createdAt,value
2023-05-19T00:01:17.761Z,12.79
2023-05-19T00:03:57.832Z,12.73
2023-05-19T00:06:26.942Z,12.70
2023-05-19T00:09:00.365Z,12.68
2023-05-19T00:11:28.910Z,12.67
2023-05-19T00:13:57.658Z,12.63
2023-05-19T00:16:25.643Z,12.65
2023-05-19T00:18:53.360Z,12.61
2023-05-19T00:21:20.927Z,12.62
2023-05-19T00:23:47.486Z,12.64
2023-05-19T00:26:14.095Z,12.61
2023-05-19T00:28:40.743Z,12.56
2023-05-19T00:31:07.364Z,12.55
2023-05-19T00:33:34.253Z,12.52
2023-05-19T00:36:03.461Z,12.55
2023-05-19T00:38:34.881Z,12.57
2023-05-19T00:41:02.528Z,12.57
2023-05-19T00:43:32.630Z,12.54
2023-05-19T00:45:59.256Z,12.50
2023-05-19T00:48:26.575Z,12.49
2023-05-19T00:50:55.213Z,12.47
2023-05-19T00:53:23.286Z,12.40
2023-05-19T00:55:50.611Z,12.43
2023-05-19T00:58:18.543Z,12.44
2023-05-19T01:00:45.793Z,12.41
2023-05-19T01:03:12.632Z,12.43
2023-05-19T01:05:41.753Z,12.45
2023-05-19T01:08:09.142Z,12.41
2023-05-19T01:10:36.014Z,12.38
2023-05-19T01:13:07.074Z,12.38
2023-05-19T01:15:42.177Z,12.36
2023-05-19T01:18:14.296Z,12.35
2023-05-19T01:20:55.312Z,12.35
2023-05-19T01:23:36.757Z,12.34
2023-05-19T01:26:16.193Z,12.39
2023-05-19T01:28:54.957Z,12.34
2023-05-19T01:31:24.037Z,12.34
2023-05-19T01:33:53.752Z,12.36
2023-05-19T01:36:22.329Z,12.29
2023-05-19T01:38:52.094Z,12.34
2023-05-19T01:41:22.505Z,12.35
2023-05-19T01:43:50.761Z,12.32
2023-05-19T01:46:17.817Z,12.28
2023-05-19T01:48:45.743Z,12.30
2023-05-19T01:51:12.362Z,12.31
2023-05-19T01:53:39.058Z,12.33
2023-05-19T01:56:06.624Z,12.31
2023-05-19T01:58:47.526Z,12.29
2023-05-19T02:01:30.815Z,12.30
2023-05-19T02:04:09.687Z,12.25
2023-05-19T02:07:09.673Z,12.26
2023-05-19T02:09:54.815Z,12.24
2023-05-19T02:12:29.120Z,12.30
2023-05-19T02:15:06.888Z,12.30
2023-05-19T02:17:36.696Z,12.25
2023-05-19T02:20:05.341Z,12.26
2023-05-19T02:22:31.974Z,12.22
2023-05-19T02:24:58.838Z,12.27
2023-05-19T02:27:26.378Z,12.25
2023-05-19T02:29:53.421Z,12.27
2023-05-19T02:32:20.965Z,12.23
2023-05-19T02:34:47.750Z,12.21
2023-05-19T02:37:17.815Z,12.22
2023-05-19T02:39:45.075Z,12.20
2023-05-19T02:42:12.555Z,12.22
2023-05-19T02:44:39.261Z,12.20
2023-05-19T02:47:05.952Z,12.14
2023-05-19T02:49:36.215Z,12.18
2023-05-19T02:52:03.904Z,12.18
2023-05-19T02:54:31.669Z,12.16
2023-05-19T02:57:01.281Z,12.16
2023-05-19T02:59:28.014Z,12.13
2023-05-19T03:01:56.782Z,12.03
2023-05-19T03:04:23.448Z,12.07
2023-05-19T03:06:50.334Z,12.05
2023-05-19T03:09:17.036Z,12.11
2023-05-19T03:11:43.679Z,12.09
2023-05-19T03:14:11.650Z,12.12
2023-05-19T03:16:42.289Z,12.15
2023-05-19T03:19:09.881Z,12.18
2023-05-19T03:21:39.449Z,12.15
2023-05-19T03:24:06.768Z,12.21
2023-05-19T03:26:33.496Z,12.20
2023-05-19T03:29:00.178Z,12.21
2023-05-19T03:31:26.995Z,12.23
2023-05-19T03:33:53.767Z,12.19
2023-05-19T03:36:22.147Z,12.16
2023-05-19T03:38:48.846Z,12.15
2023-05-19T03:41:15.565Z,12.21
2023-05-19T03:43:42.200Z,12.22
2023-05-19T03:46:08.835Z,12.25
2023-05-19T03:48:38.351Z,12.28
2023-05-19T03:51:05.054Z,12.28
2023-05-19T03:53:31.686Z,12.25
2023-05-19T03:55:59.544Z,12.28
2023-05-19T03:58:26.843Z,12.29
2023-05-19T04:00:53.531Z,12.30
2023-05-19T04:03:20.307Z,12.27
2023-05-19T04:05:47.065Z,12.30
2023-05-19T04:08:13.738Z,12.31
2023-05-19T04:10:40.353Z,12.32
2023-05-19T04:13:09.961Z,12.32
2023-05-19T04:15:36.659Z,12.30
2023-05-19T04:18:03.430Z,12.30
2023-05-19T04:20:30.223Z,12.29
2023-05-19T04:22:56.947Z,12.38
2023-05-19T04:25:25.376Z,12.43
2023-05-19T04:27:53.074Z,12.40
2023-05-19T04:30:22.597Z,12.41
2023-05-19T04:32:53.543Z,12.34
2023-05-19T04:35:20.788Z,12.29
2023-05-19T04:37:47.395Z,12.29
2023-05-19T04:40:17.465Z,12.32
2023-05-19T04:42:46.147Z,12.36
2023-05-19T04:45:14.130Z,12.33
2023-05-19T04:47:41.976Z,12.36
2023-05-19T04:50:10.440Z,12.35
2023-05-19T04:52:37.765Z,12.36
2023-05-19T04:55:04.788Z,12.38
2023-05-19T04:57:31.439Z,12.38
2023-05-19T05:00:00.301Z,12.37
2023-05-19T05:02:29.932Z,12.41
2023-05-19T05:04:57.855Z,12.46
2023-05-19T05:07:24.692Z,12.48
2023-05-19T05:09:51.537Z,12.48
2023-05-19T05:12:19.190Z,12.48
2023-05-19T05:14:46.125Z,12.48
2023-05-19T05:17:13.797Z,12.54
2023-05-19T05:19:41.098Z,12.50
2023-05-19T05:22:10.743Z,12.53
2023-05-19T05:24:39.745Z,12.54
2023-05-19T05:27:08.280Z,12.51
2023-05-19T05:29:38.098Z,12.52
2023-05-19T05:32:10.439Z,12.52
2023-05-19T05:34:38.181Z,12.54
2023-05-19T05:37:04.944Z,12.55
2023-05-19T05:39:32.007Z,12.53
2023-05-19T05:41:58.721Z,12.53
2023-05-19T05:44:25.430Z,12.59
2023-05-19T05:46:55.260Z,12.57
2023-05-19T05:49:23.235Z,12.61
2023-05-19T05:52:01.821Z,12.62
2023-05-19T05:54:35.306Z,12.68
2023-05-19T05:57:02.645Z,12.65
2023-05-19T05:59:29.307Z,12.67
2023-05-19T06:01:56.014Z,12.67
2023-05-19T06:04:22.717Z,12.62
2023-05-19T06:06:49.387Z,12.67
2023-05-19T06:09:16.399Z,12.62
2023-05-19T06:11:43.042Z,12.66
2023-05-19T06:14:10.369Z,12.67
2023-05-19T06:16:37.062Z,12.71
2023-05-19T06:19:03.806Z,12.76
2023-05-19T06:21:30.944Z,12.80
2023-05-19T06:23:57.642Z,12.76
2023-05-19T06:26:24.402Z,12.79
2023-05-19T06:28:51.408Z,12.81
2023-05-19T06:31:18.216Z,12.82
2023-05-19T06:33:44.821Z,12.83
2023-05-19T06:36:14.080Z,12.86
2023-05-19T06:38:40.749Z,12.88
2023-05-19T06:41:07.554Z,12.86
2023-05-19T06:43:34.173Z,12.93
2023-05-19T06:46:00.802Z,12.97
2023-05-19T06:48:27.494Z,13.00
2023-05-19T06:50:54.277Z,13.06
2023-05-19T06:53:21.473Z,13.03
2023-05-19T06:55:59.245Z,13.10
2023-05-19T06:58:27.273Z,13.13
2023-05-19T07:00:53.948Z,13.15
2023-05-19T07:03:20.663Z,13.16
2023-05-19T07:05:47.629Z,13.19
2023-05-19T07:08:14.253Z,13.20
2023-05-19T07:10:43.825Z,13.21
2023-05-19T07:13:10.485Z,13.22
2023-05-19T07:15:37.124Z,13.25
2023-05-19T07:18:03.964Z,13.28
2023-05-19T07:20:30.992Z,13.35
2023-05-19T07:22:57.956Z,13.40
2023-05-19T07:25:26.166Z,13.44
2023-05-19T07:27:53.016Z,13.47
2023-05-19T07:30:19.635Z,13.51
2023-05-19T07:32:46.295Z,13.55
2023-05-19T07:35:13.062Z,13.57
2023-05-19T07:37:39.823Z,13.62
2023-05-19T07:40:08.033Z,13.59
2023-05-19T07:42:34.802Z,13.66
2023-05-19T07:45:03.232Z,13.65
2023-05-19T07:47:30.735Z,13.67
2023-05-19T07:49:57.448Z,13.71
2023-05-19T07:52:24.075Z,13.75
2023-05-19T07:54:50.697Z,13.79
2023-05-19T07:57:19.032Z,13.83
2023-05-19T07:59:45.714Z,13.88
2023-05-19T08:02:15.574Z,13.93
2023-05-19T08:04:42.788Z,13.99
2023-05-19T08:07:09.435Z,14.04
2023-05-19T08:09:39.148Z,14.12
2023-05-19T08:12:06.289Z,14.20
2023-05-19T08:14:37.574Z,14.25
2023-05-19T08:17:04.255Z,14.28
2023-05-19T08:19:30.935Z,14.36
2023-05-19T08:21:58.297Z,14.41
2023-05-19T08:24:24.980Z,14.48
2023-05-19T08:26:51.704Z,14.54
2023-05-19T08:29:18.360Z,14.60
2023-05-19T08:31:45.004Z,14.68
2023-05-19T08:34:11.874Z,14.80
2023-05-19T08:36:39.057Z,14.90
2023-05-19T08:39:06.043Z,15.02
2023-05-19T08:41:33.087Z,15.15
2023-05-19T08:44:02.091Z,15.29
2023-05-19T08:46:29.371Z,15.48
2023-05-19T08:49:02.149Z,15.68
2023-05-19T08:51:50.972Z,15.88
2023-05-19T08:54:18.695Z,16.05
2023-05-19T08:56:45.746Z,16.20
2023-05-19T08:59:14.612Z,16.36
2023-05-19T09:01:48.601Z,16.51
2023-05-19T09:04:17.074Z,16.67
2023-05-19T09:06:45.265Z,16.83
2023-05-19T09:09:13.616Z,16.98
2023-05-19T09:11:40.214Z,17.13
2023-05-19T09:14:09.447Z,17.28
2023-05-19T09:16:36.384Z,17.42
2023-05-19T09:19:03.303Z,17.56
2023-05-19T09:21:33.662Z,17.71
2023-05-19T09:24:08.404Z,17.87
2023-05-19T09:26:42.737Z,18.00
2023-05-19T09:29:13.940Z,18.14
2023-05-19T09:31:50.635Z,18.27
2023-05-19T09:34:18.462Z,18.41
2023-05-19T09:36:46.933Z,18.53
2023-05-19T09:39:14.932Z,18.63
2023-05-19T09:41:42.299Z,18.71
2023-05-19T09:44:23.340Z,18.81
2023-05-19T09:46:50.944Z,18.93
2023-05-19T09:49:25.397Z,19.04
2023-05-19T09:51:58.864Z,19.14
2023-05-19T09:54:27.570Z,19.23
2023-05-19T09:57:01.013Z,19.35
2023-05-19T09:59:32.034Z,19.43
2023-05-19T10:02:01.040Z,19.53
2023-05-19T10:04:29.780Z,19.65
2023-05-19T10:07:01.184Z,19.75
2023-05-19T10:09:29.732Z,19.84
2023-05-19T10:12:01.858Z,19.92
2023-05-19T10:14:29.762Z,20.00
2023-05-19T10:16:59.855Z,20.08
2023-05-19T10:19:28.296Z,20.16
2023-05-19T10:21:56.314Z,20.24
2023-05-19T10:24:26.600Z,20.32
2023-05-19T10:27:03.607Z,20.39
2023-05-19T10:29:35.657Z,20.48
2023-05-19T10:32:10.614Z,20.56
2023-05-19T10:35:02.992Z,20.66
2023-05-19T10:37:53.775Z,20.72
2023-05-19T10:41:10.426Z,20.77
2023-05-19T10:44:10.266Z,20.83
2023-05-19T10:46:37.865Z,20.91
2023-05-19T10:49:04.562Z,20.94
2023-05-19T10:51:32.325Z,20.98
2023-05-19T10:54:10.448Z,21.03
2023-05-19T10:56:42.439Z,21.10
2023-05-19T10:59:35.656Z,21.19
2023-05-19T11:02:08.919Z,21.26
2023-05-19T11:04:53.641Z,21.33
2023-05-19T11:07:22.457Z,21.42
2023-05-19T11:09:53.279Z,21.45
2023-05-19T11:12:25.044Z,21.49
2023-05-19T11:14:55.952Z,21.57
2023-05-19T11:17:27.483Z,21.64
2023-05-19T11:19:55.934Z,21.67
2023-05-19T11:22:27.249Z,21.72
2023-05-19T11:24:59.909Z,21.78
2023-05-19T11:27:31.108Z,21.84
2023-05-19T11:29:59.636Z,21.90
2023-05-19T11:32:31.175Z,21.96
2023-05-19T11:34:58.259Z,22.03
2023-05-19T11:37:25.372Z,22.09
2023-05-19T11:39:53.065Z,22.14
2023-05-19T11:42:23.024Z,22.16
2023-05-19T11:44:55.872Z,22.16
2023-05-19T11:47:22.570Z,22.18
2023-05-19T11:49:57.758Z,22.21
2023-05-19T11:52:26.005Z,22.25
2023-05-19T11:54:52.716Z,22.29
2023-05-19T11:57:22.646Z,22.29
2023-05-19T11:59:53.337Z,22.31
2023-05-19T12:02:27.702Z,22.32
2023-05-19T12:04:55.105Z,22.36
2023-05-19T12:07:26.065Z,22.38
2023-05-19T12:09:53.420Z,22.38
2023-05-19T12:12:21.359Z,22.41
2023-05-19T12:14:50.176Z,22.41
2023-05-19T12:17:21.508Z,22.42
2023-05-19T12:19:49.254Z,22.45
2023-05-19T12:22:17.313Z,22.46
2023-05-19T12:24:45.209Z,22.49
2023-05-19T12:27:13.737Z,22.49
2023-05-19T12:29:40.680Z,22.50
2023-05-19T12:32:08.321Z,22.52
2023-05-19T12:34:38.994Z,22.54
2023-05-19T12:37:06.470Z,22.57
2023-05-19T12:39:34.013Z,22.57
2023-05-19T12:42:07.939Z,22.58
2023-05-19T12:44:54.831Z,22.57
2023-05-19T12:47:22.371Z,22.61
2023-05-19T12:49:55.972Z,22.63
2023-05-19T12:52:23.702Z,22.64
2023-05-19T12:54:52.518Z,22.64
2023-05-19T12:57:21.120Z,22.61
2023-05-19T12:59:49.393Z,22.64
2023-05-19T13:02:16.576Z,22.67
2023-05-19T13:04:43.339Z,22.68
2023-05-19T13:07:09.968Z,22.70
2023-05-19T13:09:36.650Z,22.71
2023-05-19T13:12:04.788Z,22.71
2023-05-19T13:14:31.450Z,22.73
2023-05-19T13:16:58.080Z,22.73
2023-05-19T13:19:26.026Z,22.74
2023-05-19T13:21:53.100Z,22.75
2023-05-19T13:24:22.007Z,22.75
2023-05-19T13:26:48.927Z,22.73
2023-05-19T13:29:15.609Z,22.74
2023-05-19T13:31:42.414Z,22.72
2023-05-19T13:34:09.209Z,22.71
2023-05-19T13:36:36.641Z,22.70
2023-05-19T13:39:03.604Z,22.70
2023-05-19T13:41:30.346Z,22.69
2023-05-19T13:43:59.235Z,22.73
2023-05-19T13:46:36.723Z,22.73
2023-05-19T13:49:13.063Z,22.72
2023-05-19T13:51:45.026Z,22.72
2023-05-19T13:54:11.851Z,22.73
2023-05-19T13:56:38.771Z,22.74
2023-05-19T13:59:05.402Z,22.75
2023-05-19T14:01:35.742Z,22.65
2023-05-19T14:04:02.791Z,22.60
2023-05-19T14:06:29.622Z,22.47
2023-05-19T14:08:59.199Z,22.44
2023-05-19T14:11:26.330Z,22.34
2023-05-19T14:13:53.271Z,22.29
2023-05-19T14:16:23.219Z,22.27
2023-05-19T14:18:50.014Z,22.25
2023-05-19T14:21:16.669Z,22.18
2023-05-19T14:23:48.627Z,22.17
2023-05-19T14:26:16.065Z,22.06
2023-05-19T14:28:42.774Z,22.00
2023-05-19T14:31:12.877Z,22.01
2023-05-19T14:33:40.810Z,21.97
2023-05-19T14:36:08.474Z,21.95
2023-05-19T14:38:35.429Z,21.90
2023-05-19T14:41:02.367Z,21.90
2023-05-19T14:43:29.115Z,21.91
2023-05-19T14:45:56.849Z,21.93
2023-05-19T14:48:23.546Z,21.94
2023-05-19T14:50:50.370Z,21.95
2023-05-19T14:53:17.084Z,21.98
2023-05-19T14:55:46.494Z,21.98
2023-05-19T14:58:27.686Z,21.96
2023-05-19T15:00:58.072Z,21.94
2023-05-19T15:03:25.072Z,21.92
2023-05-19T15:05:51.871Z,21.90
2023-05-19T15:08:18.582Z,21.85
2023-05-19T15:10:49.364Z,21.87
2023-05-19T15:13:17.156Z,21.89
2023-05-19T15:15:43.797Z,21.89
2023-05-19T15:18:11.510Z,21.87
2023-05-19T15:20:38.138Z,21.82
2023-05-19T15:23:04.796Z,21.80
2023-05-19T15:25:31.528Z,21.84
2023-05-19T15:27:58.194Z,21.84
2023-05-19T15:30:25.944Z,21.82
2023-05-19T15:32:52.565Z,21.80
2023-05-19T15:35:19.264Z,21.79
2023-05-19T15:37:45.912Z,21.76
2023-05-19T15:40:12.936Z,21.75
2023-05-19T15:42:39.554Z,21.69
2023-05-19T15:45:08.208Z,21.68
2023-05-19T15:47:34.946Z,21.66
2023-05-19T15:50:01.612Z,21.66
2023-05-19T15:52:29.275Z,21.61
2023-05-19T15:54:59.059Z,21.64
2023-05-19T15:57:25.963Z,21.60
2023-05-19T15:59:52.642Z,21.57
2023-05-19T16:02:19.658Z,21.54
2023-05-19T16:04:46.446Z,21.52
2023-05-19T16:07:13.094Z,21.53
2023-05-19T16:09:39.741Z,21.52
2023-05-19T16:12:06.793Z,21.53
2023-05-19T16:14:36.512Z,21.51
2023-05-19T16:17:07.598Z,21.51
2023-05-19T16:19:34.369Z,21.51
2023-05-19T16:22:01.098Z,21.48
2023-05-19T16:24:28.459Z,21.46
2023-05-19T16:26:55.593Z,21.46
2023-05-19T16:29:22.239Z,21.42
2023-05-19T16:31:48.849Z,21.39
2023-05-19T16:34:15.653Z,21.33
2023-05-19T16:36:42.342Z,21.29
2023-05-19T16:39:09.037Z,21.26
2023-05-19T16:41:35.871Z,21.23
2023-05-19T16:44:02.583Z,21.20
2023-05-19T16:46:32.437Z,21.16
2023-05-19T16:48:59.069Z,21.12
2023-05-19T16:51:25.825Z,21.07
2023-05-19T16:53:52.466Z,21.05
2023-05-19T16:56:19.248Z,21.02
2023-05-19T16:58:46.465Z,20.98
2023-05-19T17:01:13.145Z,20.91
2023-05-19T17:03:39.845Z,20.90
2023-05-19T17:06:06.608Z,20.88
2023-05-19T17:08:33.223Z,20.84
2023-05-19T17:10:59.903Z,20.82
2023-05-19T17:13:28.354Z,20.79
2023-05-19T17:15:55.019Z,20.78
2023-05-19T17:18:21.706Z,20.75
2023-05-19T17:20:48.439Z,20.73
2023-05-19T17:23:15.098Z,20.72
2023-05-19T17:25:41.959Z,20.68
2023-05-19T17:28:08.741Z,20.62
2023-05-19T17:30:35.802Z,20.59
2023-05-19T17:33:02.537Z,20.58
2023-05-19T17:35:29.254Z,20.51
2023-05-19T17:37:56.034Z,20.50
2023-05-19T17:40:22.651Z,20.46
2023-05-19T17:42:49.337Z,20.43
2023-05-19T17:45:16.142Z,20.39
2023-05-19T17:47:42.871Z,20.36
2023-05-19T17:50:09.937Z,20.32
2023-05-19T17:52:38.411Z,20.25
2023-05-19T17:55:05.886Z,20.22
2023-05-19T17:57:34.133Z,20.15
2023-05-19T18:00:01.366Z,20.11
2023-05-19T18:02:28.180Z,20.05
2023-05-19T18:04:55.172Z,20.00
2023-05-19T18:07:23.453Z,19.94
2023-05-19T18:09:51.860Z,19.88
2023-05-19T18:12:18.526Z,19.82
2023-05-19T18:14:48.226Z,19.78
2023-05-19T18:17:14.851Z,19.72
2023-05-19T18:19:44.445Z,19.67
2023-05-19T18:22:12.986Z,19.60
2023-05-19T18:24:39.650Z,19.56
2023-05-19T18:27:06.301Z,19.51
2023-05-19T18:29:33.996Z,19.43
2023-05-19T18:32:01.394Z,19.33
2023-05-19T18:34:30.183Z,19.25
2023-05-19T18:36:56.785Z,19.16
2023-05-19T18:39:23.495Z,19.09
2023-05-19T18:41:50.845Z,19.03
2023-05-19T18:44:17.546Z,18.97
2023-05-19T18:46:47.256Z,18.89
2023-05-19T18:49:13.968Z,18.77
2023-05-19T18:51:42.087Z,18.73
2023-05-19T18:54:08.816Z,18.68
2023-05-19T18:56:35.712Z,18.61
2023-05-19T18:59:02.450Z,18.57
2023-05-19T19:01:29.192Z,18.52
2023-05-19T19:03:55.935Z,18.50
2023-05-19T19:06:23.442Z,18.45
2023-05-19T19:08:50.323Z,18.41
2023-05-19T19:11:17.015Z,18.37
2023-05-19T19:13:43.856Z,18.37
2023-05-19T19:16:10.950Z,18.28
2023-05-19T19:18:37.698Z,18.25
2023-05-19T19:21:06.048Z,18.19
2023-05-19T19:23:33.220Z,18.18
2023-05-19T19:26:00.296Z,18.13
2023-05-19T19:28:27.041Z,18.07
2023-05-19T19:30:53.714Z,18.05
2023-05-19T19:33:20.574Z,18.05
2023-05-19T19:35:47.240Z,18.04
2023-05-19T19:38:14.161Z,18.01
2023-05-19T19:40:40.878Z,18.00
2023-05-19T19:43:07.558Z,17.98
2023-05-19T19:45:34.901Z,17.92
2023-05-19T19:48:01.934Z,17.87
2023-05-19T19:50:28.568Z,17.84
2023-05-19T19:52:55.170Z,17.80
2023-05-19T19:55:21.914Z,17.78
2023-05-19T19:57:49.572Z,17.77
2023-05-19T20:00:16.666Z,17.71
2023-05-19T20:03:02.859Z,17.68
2023-05-19T20:05:30.043Z,17.60
2023-05-19T20:07:56.736Z,17.53
2023-05-19T20:10:23.378Z,17.46
2023-05-19T20:12:50.700Z,17.45
2023-05-19T20:15:17.585Z,17.41
2023-05-19T20:17:44.334Z,17.39
2023-05-19T20:20:12.322Z,17.34
2023-05-19T20:22:41.158Z,17.34
2023-05-19T20:25:08.189Z,17.32
2023-05-19T20:27:37.715Z,17.23
2023-05-19T20:30:04.919Z,17.19
2023-05-19T20:32:31.664Z,17.18
2023-05-19T20:34:58.501Z,17.11
2023-05-19T20:37:25.135Z,17.07
2023-05-19T20:39:51.881Z,17.04
2023-05-19T20:42:18.482Z,17.03
2023-05-19T20:44:45.144Z,17.01
2023-05-19T20:47:11.859Z,16.97
2023-05-19T20:49:38.567Z,16.96
2023-05-19T20:52:05.276Z,16.94
2023-05-19T20:54:31.928Z,16.91
2023-05-19T20:56:58.557Z,16.91
2023-05-19T20:59:25.536Z,16.89
2023-05-19T21:01:52.120Z,16.83
2023-05-19T21:04:18.970Z,16.77
2023-05-19T21:06:45.887Z,16.77
2023-05-19T21:09:12.588Z,16.74
2023-05-19T21:11:39.191Z,16.69
2023-05-19T21:14:08.095Z,16.68
2023-05-19T21:16:38.838Z,16.63
2023-05-19T21:19:06.938Z,16.59
2023-05-19T21:21:34.710Z,16.59
2023-05-19T21:24:01.977Z,16.52
2023-05-19T21:26:28.585Z,16.49
2023-05-19T21:28:55.257Z,16.50
2023-05-19T21:31:21.938Z,16.47
2023-05-19T21:33:48.721Z,16.42
2023-05-19T21:36:16.546Z,16.33
2023-05-19T21:38:43.176Z,16.32
2023-05-19T21:41:09.864Z,16.25
2023-05-19T21:43:36.498Z,16.18
2023-05-19T21:46:03.262Z,16.19
2023-05-19T21:48:29.876Z,16.15
2023-05-19T21:50:57.281Z,16.12
2023-05-19T21:53:24.760Z,16.10
2023-05-19T21:55:51.629Z,16.11
2023-05-19T21:58:18.569Z,16.09
2023-05-19T22:00:52.686Z,16.08
2023-05-19T22:03:19.742Z,16.08
2023-05-19T22:05:50.843Z,16.05
2023-05-19T22:08:18.509Z,16.06
2023-05-19T22:10:45.420Z,16.03
2023-05-19T22:13:12.707Z,16.05
2023-05-19T22:15:39.623Z,16.07
2023-05-19T22:18:07.016Z,16.00
2023-05-19T22:20:34.283Z,15.97
2023-05-19T22:23:04.077Z,16.01
2023-05-19T22:25:31.236Z,16.02
2023-05-19T22:27:57.896Z,15.97
2023-05-19T22:30:24.718Z,15.99
2023-05-19T22:32:51.395Z,15.95
2023-05-19T22:35:18.916Z,15.94
2023-05-19T22:37:45.504Z,15.91
2023-05-19T22:40:12.342Z,15.87
2023-05-19T22:42:39.005Z,15.74
2023-05-19T22:45:06.410Z,15.80
2023-05-19T22:47:33.084Z,15.75
2023-05-19T22:49:59.740Z,15.75
2023-05-19T22:52:26.395Z,15.79
2023-05-19T22:54:53.099Z,15.78
2023-05-19T22:57:19.722Z,15.80
2023-05-19T22:59:48.226Z,15.81
2023-05-19T23:02:14.862Z,15.76
2023-05-19T23:04:41.553Z,15.74
2023-05-19T23:07:08.212Z,15.73
2023-05-19T23:09:34.933Z,15.67
2023-05-19T23:12:01.585Z,15.70
2023-05-19T23:14:28.491Z,15.65
2023-05-19T23:16:55.208Z,15.67
2023-05-19T23:19:22.335Z,15.64
2023-05-19T23:21:49.330Z,15.60
2023-05-19T23:24:16.305Z,15.56
2023-05-19T23:26:45.965Z,15.54
2023-05-19T23:29:13.666Z,15.52
2023-05-19T23:31:41.147Z,15.47
2023-05-19T23:34:08.928Z,15.43
2023-05-19T23:36:36.517Z,15.40
2023-05-19T23:39:03.410Z,15.44
2023-05-19T23:41:35.984Z,15.42
2023-05-19T23:44:02.645Z,15.43
2023-05-19T23:46:29.496Z,15.42
2023-05-19T23:48:56.284Z,15.37
2023-05-19T23:51:22.955Z,15.32
2023-05-19T23:53:49.624Z,15.35
2023-05-19T23:56:18.941Z,15.33
2023-05-19T23:58:45.766Z,15.32
